Time;durP1;ratioP1;P1;durP2;ratioP2;P2;SDS_P1;SDS_P2;PMS_P1;PMS_P2;Temp;Humidity;BMP_temperature;BMP_pressure;BME280_temperature;BME280_humidity;BME280_pressure;Samples;Min_cycle;Max_cycle;Signal;HPM_P1;HPM_P2
2023/07/05 00:02:21;;;;;;;12.63;10.80;;;21.00;58.60;;;;;;5002688;28;20029;-66
2023/07/05 00:04:47;;;;;;;12.05;10.60;;;21.00;58.60;;;;;;5002859;28;20038;-65
2023/07/05 00:07:12;;;;;;;12.45;10.93;;;21.00;58.60;;;;;;5004487;28;20034;-67
2023/07/05 00:09:38;;;;;;;10.70;9.43;;;21.00;58.70;;;;;;5003761;28;20030;-66
2023/07/05 00:12:04;;;;;;;11.73;10.38;;;21.00;58.70;;;;;;5003497;28;20117;-66
2023/07/05 00:14:29;;;;;;;13.27;11.43;;;21.00;58.70;;;;;;5004935;28;20126;-66
2023/07/05 00:16:55;;;;;;;12.23;10.45;;;21.00;58.80;;;;;;5001311;28;20036;-65
2023/07/05 00:19:20;;;;;;;12.27;10.50;;;21.00;58.80;;;;;;5003830;28;20723;-66
2023/07/05 00:21:46;;;;;;;14.20;11.07;;;21.00;58.60;;;;;;5003497;28;20029;-65
2023/07/05 00:24:11;;;;;;;11.80;10.30;;;21.00;58.80;;;;;;5001536;28;20084;-66
2023/07/05 00:26:37;;;;;;;12.35;10.80;;;20.90;58.80;;;;;;5003841;28;20510;-67
2023/07/05 00:29:02;;;;;;;12.25;10.60;;;21.00;58.80;;;;;;5001704;28;20022;-66
2023/07/05 00:31:28;;;;;;;13.77;10.88;;;21.00;58.60;;;;;;5005116;28;20029;-63
2023/07/05 00:33:53;;;;;;;11.65;10.27;;;20.90;58.40;;;;;;5006049;28;20029;-66
2023/07/05 00:36:19;;;;;;;12.93;11.25;;;20.90;58.50;;;;;;5002025;28;20041;-67
2023/07/05 00:38:44;;;;;;;13.50;10.38;;;20.90;58.50;;;;;;4995947;28;20404;-62
2023/07/05 00:41:09;;;;;;;13.55;11.27;;;20.90;58.60;;;;;;5000857;28;20356;-66
2023/07/05 00:43:35;;;;;;;15.10;11.63;;;20.90;58.40;;;;;;5002390;28;20040;-66
2023/07/05 00:46:12;;;;;;;14.60;11.57;;;20.90;58.50;;;;;;5001116;28;20034;-65
2023/07/05 00:48:44;;;;;;;12.68;10.60;;;20.90;58.50;;;;;;5000830;28;20034;-66
2023/07/05 00:51:19;;;;;;;12.80;11.48;;;20.90;58.40;;;;;;5003287;28;20042;-66
2023/07/05 00:53:45;;;;;;;12.50;11.18;;;20.90;58.40;;;;;;5001868;28;20093;-65
2023/07/05 00:56:17;;;;;;;15.15;11.45;;;20.90;58.40;;;;;;4992660;28;20034;-67
2023/07/05 00:58:42;;;;;;;14.80;11.23;;;20.90;58.40;;;;;;5005910;28;20117;-66
2023/07/05 01:01:08;;;;;;;14.30;12.40;;;20.90;58.10;;;;;;5005882;28;20324;-66
2023/07/05 01:03:35;;;;;;;13.48;11.18;;;20.80;58.10;;;;;;5006113;28;20396;-66
2023/07/05 01:06:00;;;;;;;14.73;12.05;;;20.80;58.50;;;;;;5005481;28;20103;-66
2023/07/05 01:08:26;;;;;;;14.48;12.30;;;20.90;58.30;;;;;;5004826;28;20125;-66
2023/07/05 01:11:20;;;;;;;16.90;12.57;;;20.90;58.10;;;;;;5003507;28;20129;-66
2023/07/05 01:13:52;;;;;;;17.38;13.40;;;20.90;58.10;;;;;;5012708;28;20055;-63
2023/07/05 01:16:39;;;;;;;14.70;12.65;;;20.80;57.80;;;;;;5010353;28;20030;-67
2023/07/05 01:19:21;;;;;;;16.13;12.95;;;20.80;57.90;;;;;;5002445;28;20103;-66
2023/07/05 01:21:55;;;;;;;14.88;12.65;;;20.80;57.90;;;;;;5001916;28;20080;-65
2023/07/05 01:24:26;;;;;;;14.63;12.23;;;20.80;57.70;;;;;;5025457;28;20120;-63
2023/07/05 01:27:23;;;;;;;15.77;13.48;;;20.80;57.80;;;;;;5004867;28;20072;-66
2023/07/05 01:30:07;;;;;;;15.43;12.73;;;20.80;57.70;;;;;;4998482;28;20027;-66
2023/07/05 01:33:02;;;;;;;16.00;12.68;;;20.80;57.60;;;;;;5004346;28;20026;-66
2023/07/05 01:35:37;;;;;;;17.33;13.57;;;20.80;57.50;;;;;;4995168;28;20065;-64
2023/07/05 01:38:06;;;;;;;16.67;13.57;;;20.70;57.40;;;;;;5003888;28;20026;-65
2023/07/05 01:40:31;;;;;;;16.88;13.85;;;20.70;57.50;;;;;;5004916;28;20046;-66
2023/07/05 01:43:11;;;;;;;16.48;12.90;;;20.70;57.50;;;;;;5003600;28;20076;-66
2023/07/05 01:46:11;;;;;;;16.63;13.20;;;20.70;57.50;;;;;;4997456;28;20038;-66
2023/07/05 01:49:03;;;;;;;17.65;13.48;;;20.70;57.40;;;;;;5002251;28;20040;-66
2023/07/05 01:51:39;;;;;;;15.43;13.15;;;20.70;57.30;;;;;;5005930;28;20034;-64
2023/07/05 01:54:16;;;;;;;16.90;14.85;;;20.70;57.30;;;;;;5003988;28;20037;-66
2023/07/05 01:57:05;;;;;;;15.93;14.23;;;20.70;57.40;;;;;;5003306;28;20497;-65
2023/07/05 01:59:37;;;;;;;17.60;14.77;;;20.70;57.40;;;;;;5003909;28;20057;-66
2023/07/05 02:02:05;;;;;;;17.50;14.18;;;20.70;57.40;;;;;;5003224;28;20421;-67
2023/07/05 02:04:35;;;;;;;16.48;14.25;;;20.70;57.20;;;;;;5005355;28;20032;-63
2023/07/05 02:07:03;;;;;;;18.30;14.77;;;20.70;57.20;;;;;;5004359;28;20041;-66
2023/07/05 02:09:28;;;;;;;17.35;14.65;;;20.70;57.10;;;;;;5005081;28;20038;-65
2023/07/05 02:11:54;;;;;;;18.38;14.57;;;20.70;57.30;;;;;;5001755;28;20108;-67
2023/07/05 02:14:20;;;;;;;17.67;14.18;;;20.70;57.30;;;;;;5005007;28;20037;-65
2023/07/05 02:16:46;;;;;;;17.30;14.80;;;20.80;57.30;;;;;;5002648;28;20053;-66
2023/07/05 02:19:11;;;;;;;17.30;14.60;;;20.80;57.40;;;;;;5000058;28;20437;-66
2023/07/05 02:21:37;;;;;;;17.83;14.90;;;20.70;57.30;;;;;;5000579;28;20569;-66
2023/07/05 02:24:02;;;;;;;17.63;13.70;;;20.70;57.30;;;;;;5001433;28;20033;-66
2023/07/05 02:26:28;;;;;;;17.33;14.68;;;20.70;57.10;;;;;;5003044;28;20113;-63
2023/07/05 02:28:53;;;;;;;16.35;13.73;;;20.70;57.20;;;;;;5003090;28;20050;-66
2023/07/05 02:31:19;;;;;;;15.25;13.13;;;20.70;57.30;;;;;;5002618;28;20495;-66
2023/07/05 02:33:44;;;;;;;15.50;13.25;;;20.70;57.30;;;;;;5005087;28;20026;-66
2023/07/05 02:36:12;;;;;;;16.90;14.20;;;20.70;57.30;;;;;;5002885;28;20317;-66
2023/07/05 02:38:39;;;;;;;16.80;14.07;;;20.80;57.40;;;;;;5003351;28;20093;-66
2023/07/05 02:41:05;;;;;;;17.98;13.73;;;20.70;56.90;;;;;;5004860;28;20489;-66
2023/07/05 02:43:31;;;;;;;16.33;13.88;;;20.70;57.10;;;;;;5004673;28;20091;-67
2023/07/05 02:45:56;;;;;;;16.80;13.52;;;20.70;57.20;;;;;;5001801;28;20141;-63
2023/07/05 02:48:22;;;;;;;17.35;14.18;;;20.70;57.10;;;;;;5005436;28;20109;-66
2023/07/05 02:50:47;;;;;;;17.48;13.10;;;20.70;57.10;;;;;;5004867;28;20544;-64
2023/07/05 02:53:12;;;;;;;16.70;14.00;;;20.70;56.90;;;;;;4998053;28;20385;-67
2023/07/05 02:55:38;;;;;;;16.95;14.32;;;20.60;56.90;;;;;;5004927;28;20092;-66
2023/07/05 02:58:03;;;;;;;20.80;15.23;;;20.60;57.00;;;;;;5003410;28;20026;-67
2023/07/05 03:00:30;;;;;;;18.88;15.13;;;20.60;57.00;;;;;;5004836;28;20571;-66
2023/07/05 03:02:56;;;;;;;20.02;15.15;;;20.60;57.10;;;;;;5002952;28;20745;-67
2023/07/05 03:05:22;;;;;;;17.25;14.93;;;20.60;57.00;;;;;;5007385;28;20057;-66
2023/07/05 03:07:48;;;;;;;17.08;14.57;;;20.70;57.10;;;;;;5005144;28;20701;-62
2023/07/05 03:10:13;;;;;;;20.00;15.55;;;20.70;57.30;;;;;;5000829;28;20030;-65
2023/07/05 03:12:40;;;;;;;17.42;15.35;;;20.70;57.30;;;;;;5001683;28;20075;-66
2023/07/05 03:15:06;;;;;;;16.48;13.52;;;20.70;57.40;;;;;;5004269;28;20096;-66
2023/07/05 03:17:32;;;;;;;15.70;13.75;;;20.70;57.50;;;;;;5003365;28;20050;-66
2023/07/05 03:19:59;;;;;;;16.52;13.27;;;20.80;57.30;;;;;;4998384;28;20037;-66
2023/07/05 03:22:26;;;;;;;15.40;13.13;;;20.70;57.40;;;;;;5002458;28;20033;-67
2023/07/05 03:24:52;;;;;;;17.30;13.57;;;20.70;57.40;;;;;;4999990;28;20034;-65
2023/07/05 03:27:18;;;;;;;15.77;13.52;;;20.70;57.10;;;;;;5002571;28;20049;-66
2023/07/05 03:29:43;;;;;;;14.80;12.40;;;20.60;57.00;;;;;;5004266;28;20034;-66
2023/07/05 03:32:09;;;;;;;14.80;12.07;;;20.60;57.00;;;;;;4999987;28;20026;-66
2023/07/05 03:34:36;;;;;;;17.60;13.85;;;20.60;57.00;;;;;;5003960;28;20708;-66
2023/07/05 03:37:01;;;;;;;17.88;13.57;;;20.60;56.80;;;;;;5003358;28;20124;-66
2023/07/05 03:39:27;;;;;;;16.75;13.25;;;20.60;57.10;;;;;;5002188;28;20120;-66
2023/07/05 03:41:52;;;;;;;14.95;12.43;;;20.60;57.10;;;;;;5001698;28;20432;-65
2023/07/05 03:44:21;;;;;;;17.80;13.15;;;20.60;56.70;;;;;;5003896;28;20030;-62
2023/07/05 03:46:48;;;;;;;15.55;12.70;;;20.60;56.50;;;;;;4997773;28;20042;-66
2023/07/05 03:49:14;;;;;;;16.17;13.07;;;20.60;56.60;;;;;;4998931;28;20022;-67
2023/07/05 03:51:40;;;;;;;15.63;12.65;;;20.60;56.70;;;;;;5001342;28;20045;-64
2023/07/05 03:54:05;;;;;;;14.68;12.75;;;20.60;56.70;;;;;;5001678;28;20581;-62
2023/07/05 03:56:31;;;;;;;15.80;12.50;;;20.70;56.90;;;;;;5002444;28;20038;-60
2023/07/05 03:58:57;;;;;;;15.50;12.90;;;20.70;56.80;;;;;;5002564;28;20501;-66
2023/07/05 04:01:25;;;;;;;16.33;13.13;;;20.70;57.00;;;;;;5004093;28;20038;-66
2023/07/05 04:03:55;;;;;;;14.98;12.63;;;20.70;57.20;;;;;;4998217;28;20034;-65
2023/07/05 04:06:23;;;;;;;14.48;11.90;;;20.70;57.10;;;;;;5002744;28;20042;-62
2023/07/05 04:08:49;;;;;;;13.68;11.07;;;20.80;57.20;;;;;;5000556;28;20022;-61
2023/07/05 04:11:14;;;;;;;14.45;11.45;;;20.80;57.40;;;;;;4998293;28;20104;-65
2023/07/05 04:13:40;;;;;;;13.30;11.00;;;20.80;57.30;;;;;;5002416;28;20045;-62
2023/07/05 04:16:14;;;;;;;15.10;11.90;;;20.80;57.40;;;;;;5003083;28;20050;-66
2023/07/05 04:18:41;;;;;;;13.93;10.90;;;20.80;57.50;;;;;;4999764;28;20038;-61
2023/07/05 04:21:07;;;;;;;16.85;12.07;;;20.80;57.50;;;;;;5001091;28;20034;-62
2023/07/05 04:23:33;;;;;;;12.43;10.77;;;20.80;57.70;;;;;;5002756;28;20038;-65
2023/07/05 04:26:01;;;;;;;14.43;10.88;;;20.80;57.70;;;;;;5002978;28;20121;-62
2023/07/05 04:28:28;;;;;;;12.90;10.95;;;20.80;57.80;;;;;;5004098;28;20045;-61
2023/07/05 04:30:53;;;;;;;13.50;10.82;;;20.90;58.00;;;;;;5001809;28;20033;-65
2023/07/05 04:33:19;;;;;;;11.88;10.15;;;20.80;57.90;;;;;;5004283;28;20030;-63
2023/07/05 04:35:52;;;;;;;10.75;9.48;;;20.80;58.00;;;;;;5005376;28;20089;-66
2023/07/05 04:38:18;;;;;;;11.02;9.77;;;20.90;58.10;;;;;;5005751;28;20116;-64
2023/07/05 04:40:43;;;;;;;12.10;10.23;;;20.80;58.00;;;;;;5006338;28;20589;-64
2023/07/05 04:43:09;;;;;;;10.60;9.40;;;20.80;58.10;;;;;;5006696;28;20520;-61
2023/07/05 04:45:35;;;;;;;13.55;10.95;;;20.80;58.00;;;;;;5006367;28;20026;-61
2023/07/05 04:48:00;;;;;;;13.57;9.63;;;20.90;58.00;;;;;;5005810;28;20029;-66
2023/07/05 04:50:26;;;;;;;11.90;10.32;;;20.90;58.10;;;;;;5003583;28;20038;-63
2023/07/05 04:52:51;;;;;;;12.27;9.55;;;20.90;58.10;;;;;;5003811;28;20064;-63
2023/07/05 04:55:17;;;;;;;12.00;9.15;;;20.90;58.10;;;;;;5003897;28;20026;-66
2023/07/05 04:57:43;;;;;;;12.70;10.10;;;20.90;58.10;;;;;;5006183;28;20042;-63
2023/07/05 05:00:11;;;;;;;11.07;9.27;;;21.00;58.10;;;;;;5027673;28;20917;-62
2023/07/05 05:02:37;;;;;;;10.20;9.13;;;21.00;58.20;;;;;;5005384;28;20034;-62
2023/07/05 05:05:04;;;;;;;11.70;9.70;;;21.00;58.00;;;;;;5005717;28;20030;-63
2023/07/05 05:07:29;;;;;;;10.30;8.60;;;21.00;58.10;;;;;;5002950;28;20516;-61
2023/07/05 05:09:56;;;;;;;12.40;9.45;;;21.00;58.10;;;;;;5003334;28;20038;-63
2023/07/05 05:12:22;;;;;;;10.95;9.10;;;21.00;58.10;;;;;;5006233;28;20117;-62
2023/07/05 05:14:47;;;;;;;11.48;8.50;;;21.00;58.10;;;;;;5006129;28;20120;-62
2023/07/05 05:17:13;;;;;;;12.90;9.65;;;21.00;58.10;;;;;;5002621;28;20087;-64
2023/07/05 05:19:38;;;;;;;10.93;8.73;;;21.00;58.10;;;;;;5002873;28;20636;-61
2023/07/05 05:22:04;;;;;;;9.98;8.30;;;21.00;58.20;;;;;;5004001;28;20053;-61
2023/07/05 05:24:29;;;;;;;10.27;9.07;;;21.00;58.10;;;;;;5005602;28;20643;-62
2023/07/05 05:26:55;;;;;;;10.77;8.45;;;21.00;58.10;;;;;;5005441;28;20022;-63
2023/07/05 05:29:20;;;;;;;11.60;9.13;;;21.00;58.10;;;;;;5006549;28;20026;-66
2023/07/05 05:31:48;;;;;;;10.88;8.63;;;21.00;58.20;;;;;;5005543;28;20026;-61
2023/07/05 05:34:14;;;;;;;10.68;8.68;;;21.00;58.20;;;;;;5006260;28;20030;-63
2023/07/05 05:36:39;;;;;;;9.10;7.97;;;21.00;58.30;;;;;;5002762;28;20038;-63
2023/07/05 05:39:06;;;;;;;9.30;7.63;;;21.00;58.30;;;;;;5005172;28;20030;-62
2023/07/05 05:41:32;;;;;;;7.80;7.00;;;21.00;58.40;;;;;;5005943;28;20038;-64
2023/07/05 05:43:57;;;;;;;10.15;7.70;;;21.00;58.40;;;;;;5002578;28;20040;-66
2023/07/05 05:46:23;;;;;;;10.60;7.65;;;21.00;59.00;;;;;;5005731;28;20045;-63
2023/07/05 05:48:49;;;;;;;10.18;7.70;;;21.00;58.40;;;;;;5003839;28;20744;-61
2023/07/05 05:51:14;;;;;;;8.82;6.75;;;21.00;58.50;;;;;;5004328;28;20034;-65
2023/07/05 05:53:40;;;;;;;10.02;7.40;;;21.00;58.40;;;;;;5005072;28;20034;-63
2023/07/05 05:56:05;;;;;;;7.75;6.70;;;21.00;58.50;;;;;;5003267;28;20053;-66
2023/07/05 05:58:31;;;;;;;8.00;7.15;;;21.00;58.50;;;;;;5005758;28;20034;-62
2023/07/05 06:01:01;;;;;;;9.40;6.72;;;21.00;58.50;;;;;;5005402;28;20034;-64
2023/07/05 06:03:26;;;;;;;9.07;6.57;;;21.00;58.40;;;;;;5002908;28;20073;-65
2023/07/05 06:05:54;;;;;;;8.40;6.35;;;21.00;58.50;;;;;;5003503;28;20040;-63
2023/07/05 06:08:19;;;;;;;8.48;6.53;;;21.00;58.50;;;;;;5003660;28;20100;-60
2023/07/05 06:10:46;;;;;;;7.35;6.07;;;20.90;58.50;;;;;;5001869;28;20050;-62
2023/07/05 06:13:12;;;;;;;8.45;6.28;;;21.00;58.40;;;;;;5004577;28;20157;-64
2023/07/05 06:15:38;;;;;;;8.65;6.60;;;21.00;58.40;;;;;;5004503;28;20046;-64
2023/07/05 06:18:03;;;;;;;7.50;6.03;;;21.00;58.40;;;;;;5004022;28;20219;-66
2023/07/05 06:20:33;;;;;;;8.32;6.53;;;21.00;58.40;;;;;;5002974;28;20488;-62
2023/07/05 06:22:59;;;;;;;6.15;5.30;;;21.00;58.50;;;;;;5004217;28;20374;-65
2023/07/05 06:25:25;;;;;;;6.07;5.20;;;21.00;58.50;;;;;;5004239;28;20528;-63
2023/07/05 06:27:50;;;;;;;6.75;5.55;;;21.00;58.50;;;;;;5003946;28;20065;-67
2023/07/05 06:30:16;;;;;;;7.53;5.03;;;21.00;58.50;;;;;;5002170;28;20107;-66
2023/07/05 06:32:42;;;;;;;7.03;5.50;;;21.00;58.50;;;;;;4999169;28;20041;-67
2023/07/05 06:35:08;;;;;;;6.18;5.03;;;21.00;58.60;;;;;;5001518;28;20045;-65
2023/07/05 06:37:33;;;;;;;6.75;5.03;;;21.00;58.60;;;;;;5003744;28;20033;-66
2023/07/05 06:39:59;;;;;;;5.70;4.68;;;21.00;58.60;;;;;;5002158;28;20127;-65
2023/07/05 06:42:24;;;;;;;8.32;5.15;;;21.00;58.60;;;;;;4998829;28;20037;-68
2023/07/05 06:44:50;;;;;;;6.05;4.40;;;21.00;58.60;;;;;;5002804;28;20349;-60
2023/07/05 06:47:15;;;;;;;6.47;4.93;;;21.00;58.70;;;;;;5004473;28;20030;-66
2023/07/05 06:49:41;;;;;;;7.88;5.07;;;21.00;58.70;;;;;;5000796;28;20092;-66
2023/07/05 06:52:07;;;;;;;5.65;4.57;;;21.00;58.70;;;;;;5003643;28;20045;-66
2023/07/05 06:54:33;;;;;;;5.45;4.30;;;21.00;58.70;;;;;;5003291;28;20505;-67
2023/07/05 06:56:59;;;;;;;6.30;4.70;;;21.00;58.60;;;;;;5003384;28;20032;-66
2023/07/05 06:59:25;;;;;;;5.65;4.97;;;21.00;58.60;;;;;;5001766;28;20095;-65
2023/07/05 07:01:50;;;;;;;5.95;4.30;;;21.00;58.60;;;;;;5024609;28;20030;-66
2023/07/05 07:04:16;;;;;;;5.90;4.25;;;21.00;58.60;;;;;;5001486;28;20423;-66
2023/07/05 07:06:41;;;;;;;4.43;3.70;;;21.00;58.70;;;;;;4999365;28;20038;-65
2023/07/05 07:09:08;;;;;;;5.00;3.70;;;21.00;58.80;;;;;;5000934;28;20030;-64
2023/07/05 07:11:34;;;;;;;5.00;3.70;;;21.00;59.20;;;;;;4999482;28;20080;-66
2023/07/05 07:13:59;;;;;;;5.22;4.13;;;21.00;59.20;;;;;;5001019;28;20065;-66
2023/07/05 07:16:25;;;;;;;4.88;3.75;;;21.00;59.30;;;;;;5003656;28;20018;-64
2023/07/05 07:18:51;;;;;;;4.03;3.42;;;20.90;59.00;;;;;;5001537;28;20026;-65
2023/07/05 07:21:18;;;;;;;4.60;3.95;;;21.00;59.40;;;;;;5002248;28;20072;-65
2023/07/05 07:23:48;;;;;;;4.63;3.67;;;21.00;59.20;;;;;;5002073;28;20061;-68
2023/07/05 07:26:19;;;;;;;4.78;3.22;;;21.00;59.10;;;;;;5002384;28;20030;-65
2023/07/05 07:28:47;;;;;;;4.07;3.45;;;20.90;59.10;;;;;;5003103;28;20026;-66
2023/07/05 07:31:22;;;;;;;5.38;3.65;;;21.00;59.40;;;;;;5001661;28;20029;-66
2023/07/05 07:33:48;;;;;;;4.63;3.30;;;21.00;59.40;;;;;;5004427;28;20038;-63
2023/07/05 07:36:25;;;;;;;4.22;3.35;;;21.00;59.20;;;;;;4994564;28;20131;-67
2023/07/05 07:38:52;;;;;;;4.28;3.33;;;21.00;59.20;;;;;;5004043;28;20493;-66
2023/07/05 07:41:19;;;;;;;6.13;3.58;;;21.00;59.40;;;;;;5003630;28;20038;-66
2023/07/05 07:43:45;;;;;;;6.70;3.75;;;21.00;59.60;;;;;;5004474;28;20041;-67
2023/07/05 07:46:14;;;;;;;7.00;3.63;;;21.00;59.40;;;;;;5001074;28;20073;-66
2023/07/05 07:48:41;;;;;;;3.60;3.15;;;21.00;59.40;;;;;;5003921;28;20034;-65
2023/07/05 07:51:08;;;;;;;3.80;3.15;;;21.00;59.40;;;;;;5003455;28;20057;-65
2023/07/05 07:53:34;;;;;;;3.78;3.08;;;20.90;59.30;;;;;;5002162;28;20052;-66
2023/07/05 07:56:00;;;;;;;3.20;2.55;;;21.00;59.40;;;;;;5000008;28;20543;-66
2023/07/05 07:58:26;;;;;;;3.83;3.10;;;21.00;59.50;;;;;;5001342;28;20148;-66
2023/07/05 08:00:52;;;;;;;5.45;3.13;;;21.00;59.40;;;;;;5003278;28;20126;-66
2023/07/05 08:03:18;;;;;;;3.50;3.20;;;21.00;59.30;;;;;;4997632;28;20033;-64
2023/07/05 08:05:43;;;;;;;5.50;3.13;;;21.00;59.50;;;;;;5005135;28;20562;-67
2023/07/05 08:08:09;;;;;;;7.43;3.60;;;21.00;59.60;;;;;;5007022;28;20116;-66
2023/07/05 08:10:35;;;;;;;5.80;3.33;;;21.00;59.50;;;;;;5011188;28;20484;-67
2023/07/05 08:13:00;;;;;;;5.22;3.05;;;21.00;59.40;;;;;;5011131;28;20057;-67
2023/07/05 08:15:26;;;;;;;6.68;3.25;;;21.00;59.60;;;;;;5009333;28;20052;-67
2023/07/05 08:17:52;;;;;;;4.93;3.30;;;21.00;59.60;;;;;;5007038;28;20034;-68
2023/07/05 08:20:17;;;;;;;5.78;3.50;;;21.00;59.60;;;;;;5009448;28;20084;-65
2023/07/05 08:22:43;;;;;;;5.85;3.10;;;21.00;59.60;;;;;;5009593;28;20084;-64
2023/07/05 08:25:09;;;;;;;5.00;3.80;;;21.00;59.70;;;;;;5007126;28;20026;-63
2023/07/05 08:27:34;;;;;;;6.10;3.53;;;21.00;59.70;;;;;;5006287;28;20026;-66
2023/07/05 08:30:00;;;;;;;8.40;3.55;;;21.00;59.80;;;;;;5008496;28;20378;-67
2023/07/05 08:32:26;;;;;;;4.65;3.40;;;21.00;59.70;;;;;;5008323;28;20058;-66
2023/07/05 08:34:51;;;;;;;4.72;3.08;;;21.00;59.80;;;;;;5008396;28;20049;-66
2023/07/05 08:37:17;;;;;;;8.18;3.80;;;21.00;60.00;;;;;;5006101;28;20598;-66
2023/07/05 08:39:42;;;;;;;4.93;3.13;;;21.00;59.80;;;;;;5007350;28;20034;-67
2023/07/05 08:42:40;;;;;;;5.15;2.80;;;21.00;60.30;;;;;;5010492;28;20927;-68
2023/07/05 08:45:30;;;;;;;4.22;2.72;;;21.00;60.20;;;;;;5010019;28;20034;-67
2023/07/05 08:48:00;;;;;;;4.70;2.92;;;21.00;60.00;;;;;;5009087;28;20439;-66
2023/07/05 08:50:28;;;;;;;6.93;3.10;;;21.00;60.30;;;;;;5009266;28;20026;-66
2023/07/05 08:53:10;;;;;;;5.00;2.75;;;21.00;60.60;;;;;;5009519;28;20029;-66
2023/07/05 08:55:56;;;;;;;6.82;2.60;;;21.00;60.20;;;;;;5008530;28;20026;-66
2023/07/05 08:58:28;;;;;;;5.57;2.97;;;21.00;60.30;;;;;;5008585;28;20026;-66
2023/07/05 09:00:59;;;;;;;6.32;2.70;;;21.00;60.30;;;;;;5007283;28;20037;-68
2023/07/05 09:03:28;;;;;;;3.53;2.53;;;21.00;60.50;;;;;;5008863;28;20033;-66
2023/07/05 09:06:15;;;;;;;2.72;2.30;;;21.00;60.30;;;;;;5007700;28;20033;-68
2023/07/05 09:09:14;;;;;;;4.88;3.03;;;21.00;60.40;;;;;;5005930;28;20041;-65
2023/07/05 09:12:05;;;;;;;3.22;2.30;;;21.10;60.80;;;;;;5024110;28;20042;-65
2023/07/05 09:14:53;;;;;;;3.60;2.97;;;21.00;61.00;;;;;;5008299;28;20044;-65
2023/07/05 09:17:31;;;;;;;3.67;2.47;;;21.00;61.00;;;;;;5004782;28;20405;-67
2023/07/05 09:20:26;;;;;;;3.65;2.72;;;21.00;61.00;;;;;;5005919;28;20135;-65
2023/07/05 09:22:53;;;;;;;5.25;2.70;;;21.00;61.20;;;;;;5003381;28;20519;-67
2023/07/05 09:25:22;;;;;;;2.92;2.00;;;21.10;61.50;;;;;;5000990;28;20051;-64
2023/07/05 09:28:01;;;;;;;3.55;2.40;;;21.10;61.60;;;;;;5004629;28;20223;-66
2023/07/05 09:30:28;;;;;;;2.95;2.50;;;21.10;61.00;;;;;;5001445;28;20060;-63
2023/07/05 09:33:28;;;;;;;2.20;1.63;;;21.10;61.50;;;;;;5004028;28;20041;-64
2023/07/05 09:35:55;;;;;;;3.42;2.40;;;21.10;61.10;;;;;;5003694;28;20042;-65
2023/07/05 09:38:35;;;;;;;4.15;2.10;;;21.10;61.50;;;;;;5000276;28;20064;-66
2023/07/05 09:41:09;;;;;;;5.07;2.40;;;21.10;61.90;;;;;;5005059;28;20124;-64
2023/07/05 09:43:36;;;;;;;2.75;2.13;;;21.10;61.40;;;;;;5005225;28;20030;-66
2023/07/05 09:46:11;;;;;;;2.88;2.10;;;21.10;61.30;;;;;;5003929;28;20481;-64
2023/07/05 09:48:43;;;;;;;3.03;2.20;;;21.10;61.40;;;;;;5003339;28;20042;-65
2023/07/05 09:51:11;;;;;;;3.30;1.98;;;21.10;61.50;;;;;;5004166;28;20026;-65
2023/07/05 09:53:56;;;;;;;2.63;2.28;;;21.10;61.60;;;;;;5002968;28;20033;-65
2023/07/05 09:56:27;;;;;;;8.95;2.03;;;21.10;61.80;;;;;;5001267;28;20037;-63
2023/07/05 09:59:15;;;;;;;2.65;1.73;;;21.10;61.50;;;;;;5005646;28;20662;-66
2023/07/05 10:01:43;;;;;;;3.10;1.85;;;21.10;61.70;;;;;;5002422;28;20560;-66
2023/07/05 10:04:10;;;;;;;2.60;1.63;;;21.10;61.70;;;;;;5006232;28;20030;-65
2023/07/05 10:06:39;;;;;;;3.15;1.88;;;21.10;61.70;;;;;;5003835;28;20037;-65
2023/07/05 10:09:12;;;;;;;3.58;1.90;;;21.10;61.30;;;;;;5005502;28;20037;-65
2023/07/05 10:11:44;;;;;;;2.75;1.90;;;21.10;61.40;;;;;;5007639;28;20029;-65
2023/07/05 10:14:15;;;;;;;2.42;1.52;;;21.10;61.30;;;;;;5007033;28;20030;-66
2023/07/05 10:17:06;;;;;;;3.30;2.30;;;21.10;61.20;;;;;;5005852;28;20025;-66
2023/07/05 10:19:49;;;;;;;3.55;1.73;;;21.10;61.60;;;;;;5001851;28;21244;-65
2023/07/05 10:22:31;;;;;;;2.97;1.67;;;21.10;61.30;;;;;;5001801;28;20037;-63
2023/07/05 10:25:05;;;;;;;4.70;2.00;;;21.10;61.10;;;;;;5003554;28;20021;-63
2023/07/05 10:27:36;;;;;;;3.60;1.88;;;21.10;61.20;;;;;;5001251;28;20531;-66
2023/07/05 10:30:14;;;;;;;1.90;1.60;;;21.10;61.30;;;;;;5003384;28;20033;-65
2023/07/05 10:32:45;;;;;;;3.17;1.77;;;21.10;61.00;;;;;;4999717;28;20523;-65
2023/07/05 10:35:25;;;;;;;3.78;1.83;;;21.20;61.20;;;;;;5004364;28;20069;-63
2023/07/05 10:37:52;;;;;;;4.25;1.98;;;21.20;61.30;;;;;;5004761;28;20034;-66
2023/07/05 10:40:19;;;;;;;3.08;1.60;;;21.20;61.10;;;;;;5004254;28;20113;-65
2023/07/05 10:42:49;;;;;;;2.85;1.70;;;21.20;61.20;;;;;;5008012;28;20022;-66
2023/07/05 10:45:18;;;;;;;2.58;1.70;;;21.20;61.30;;;;;;5001508;28;20088;-64
2023/07/05 10:47:47;;;;;;;2.45;2.10;;;21.10;61.50;;;;;;5005574;28;20029;-66
2023/07/05 10:50:15;;;;;;;2.97;1.52;;;21.20;61.40;;;;;;5003711;28;20026;-67
2023/07/05 10:53:10;;;;;;;2.25;1.65;;;21.20;61.40;;;;;;5002389;28;20057;-68
2023/07/05 10:55:52;;;;;;;1.95;1.40;;;21.20;61.20;;;;;;5003852;28;20038;-65
2023/07/05 10:58:20;;;;;;;3.63;1.75;;;21.10;61.50;;;;;;5002631;28;20044;-65
2023/07/05 11:01:13;;;;;;;2.10;1.63;;;21.20;61.50;;;;;;5001549;28;20037;-63
2023/07/05 11:03:56;;;;;;;1.90;1.40;;;21.20;61.50;;;;;;5016844;28;20355;-66
2023/07/05 11:06:22;;;;;;;3.58;1.65;;;21.20;61.80;;;;;;5003286;28;20026;-65
2023/07/05 11:08:49;;;;;;;3.30;1.58;;;21.20;61.50;;;;;;5006757;28;20021;-66
2023/07/05 11:11:17;;;;;;;4.05;2.05;;;21.20;61.60;;;;;;5001594;28;20022;-64
2023/07/05 11:13:45;;;;;;;1.63;1.30;;;21.20;61.30;;;;;;5004202;28;20175;-65
2023/07/05 11:16:21;;;;;;;2.38;1.52;;;21.20;61.60;;;;;;5003829;28;20076;-66
2023/07/05 11:18:48;;;;;;;1.85;1.40;;;21.20;61.30;;;;;;5001821;28;20160;-70
2023/07/05 11:21:44;;;;;;;2.10;1.40;;;21.20;61.70;;;;;;5001686;28;20819;-64
2023/07/05 11:24:12;;;;;;;2.58;1.30;;;21.20;61.40;;;;;;5002363;28;20113;-64
2023/07/05 11:26:40;;;;;;;2.90;1.65;;;21.20;61.60;;;;;;4996947;28;20594;-65
2023/07/05 11:29:25;;;;;;;2.72;1.77;;;21.20;61.70;;;;;;5002461;28;20096;-64
2023/07/05 11:31:53;;;;;;;2.17;1.42;;;21.20;61.70;;;;;;5002092;28;20053;-65
2023/07/05 11:34:21;;;;;;;2.42;1.60;;;21.20;61.60;;;;;;5001371;28;20097;-65
2023/07/05 11:36:50;;;;;;;4.15;1.77;;;21.20;61.90;;;;;;5002291;28;20034;-64
2023/07/05 11:39:46;;;;;;;2.83;1.35;;;21.20;61.90;;;;;;5003820;28;20069;-65
2023/07/05 11:42:14;;;;;;;1.90;1.67;;;21.20;61.70;;;;;;4997774;28;20034;-65
2023/07/05 11:44:53;;;;;;;2.63;1.75;;;21.20;61.90;;;;;;5015801;28;20265;-65
2023/07/05 11:47:21;;;;;;;1.73;1.20;;;21.20;62.30;;;;;;5001426;28;20780;-66
2023/07/05 11:49:56;;;;;;;2.97;1.60;;;21.20;62.10;;;;;;5003003;28;20038;-65
2023/07/05 11:52:27;;;;;;;2.35;1.55;;;21.20;62.30;;;;;;5001916;28;20524;-66
2023/07/05 11:55:02;;;;;;;2.70;1.58;;;21.20;62.10;;;;;;5001210;28;20484;-66
2023/07/05 11:57:34;;;;;;;4.03;1.50;;;21.20;62.20;;;;;;5001235;28;20026;-63
2023/07/05 12:00:14;;;;;;;2.67;1.38;;;21.20;62.30;;;;;;5001667;28;20054;-65
2023/07/05 12:02:51;;;;;;;6.43;1.70;;;21.20;62.30;;;;;;4994015;28;20027;-65
2023/07/05 12:05:19;;;;;;;2.92;1.58;;;21.20;62.50;;;;;;5002330;28;20048;-64
2023/07/05 12:08:11;;;;;;;2.20;1.63;;;21.20;62.10;;;;;;5002073;28;20053;-66
2023/07/05 12:10:37;;;;;;;5.90;1.60;;;21.30;62.00;;;;;;4989818;28;20081;-65
2023/07/05 12:13:08;;;;;;;2.55;1.45;;;21.30;62.20;;;;;;4999446;28;20481;-65
2023/07/05 12:15:37;;;;;;;1.83;1.30;;;21.30;62.30;;;;;;5002576;28;20034;-63
2023/07/05 12:18:03;;;;;;;2.00;1.15;;;21.20;62.10;;;;;;5001362;28;20030;-65
2023/07/05 12:20:42;;;;;;;3.67;1.33;;;21.30;62.00;;;;;;4999524;28;20559;-65
2023/07/05 12:23:13;;;;;;;2.03;1.40;;;21.30;62.50;;;;;;4987372;28;20038;-65
2023/07/05 12:25:39;;;;;;;1.67;1.20;;;21.30;62.10;;;;;;5002024;28;20060;-64
2023/07/05 12:28:17;;;;;;;3.45;1.30;;;21.20;62.00;;;;;;5001941;28;20033;-65
2023/07/05 12:30:44;;;;;;;9.60;1.35;;;21.30;62.20;;;;;;5000064;28;20623;-64
2023/07/05 12:33:22;;;;;;;1.75;1.20;;;21.20;62.10;;;;;;5004141;28;20041;-65
2023/07/05 12:36:09;;;;;;;3.42;1.55;;;21.30;62.60;;;;;;5003593;28;20136;-65
2023/07/05 12:38:37;;;;;;;3.00;1.67;;;21.30;62.50;;;;;;5001739;28;20042;-64
2023/07/05 12:41:03;;;;;;;3.88;1.73;;;21.20;62.10;;;;;;5003272;28;20044;-65
2023/07/05 12:43:29;;;;;;;4.55;1.20;;;21.30;62.10;;;;;;5001208;28;20103;-63
2023/07/05 12:46:19;;;;;;;2.38;1.50;;;21.30;62.10;;;;;;5000647;28;20508;-64
2023/07/05 12:48:44;;;;;;;2.10;1.15;;;21.30;62.10;;;;;;4999558;28;20039;-65
2023/07/05 12:51:10;;;;;;;2.17;1.48;;;21.30;62.10;;;;;;4998789;28;20554;-65
2023/07/05 12:53:36;;;;;;;3.03;1.48;;;21.30;62.10;;;;;;5001831;28;20034;-65